Time;durP1;ratioP1;P1;durP2;ratioP2;P2;SDS_P1;SDS_P2;PMS_P1;PMS_P2;Temp;Humidity;BMP_temperature;BMP_pressure;BME280_temperature;BME280_humidity;BME280_pressure;Samples;Min_cycle;Max_cycle;Signal;HPM_P1;HPM_P2
2023/12/17 00:00:18;;;;;;;8.13;4.70;;;;;;;;;;5045652;28;20195;-69
2023/12/17 00:02:45;;;;;;;9.20;5.23;;;;;;;;;;5045146;28;20195;-69
2023/12/17 00:05:12;;;;;;;9.23;4.60;;;;;;;;;;5041697;28;20212;-69
2023/12/17 00:07:41;;;;;;;8.50;5.20;;;;;;;;;;5045923;28;20211;-68
2023/12/17 00:10:09;;;;;;;9.17;5.10;;;;;;;;;;5040386;28;20255;-69
2023/12/17 00:12:36;;;;;;;10.13;5.43;;;;;;;;;;5044961;28;20207;-69
2023/12/17 00:15:03;;;;;;;9.83;5.40;;;;;;;;;;5045029;28;20203;-69
2023/12/17 00:17:30;;;;;;;11.40;6.17;;;;;;;;;;5042523;28;20203;-69
2023/12/17 00:19:57;;;;;;;11.80;5.87;;;;;;;;;;5042600;28;20203;-69
2023/12/17 00:22:24;;;;;;;10.07;5.30;;;;;;;;;;5045646;28;20237;-69
2023/12/17 00:24:53;;;;;;;8.93;5.83;;;;;;;;;;5042752;28;20637;-69
2023/12/17 00:27:20;;;;;;;12.47;5.50;;;;;;;;;;5044855;28;20199;-69
2023/12/17 00:29:47;;;;;;;9.00;5.83;;;;;;;;;;5042969;28;20238;-69
2023/12/17 00:32:14;;;;;;;7.53;5.40;;;;;;;;;;5042581;28;20206;-69
2023/12/17 00:34:41;;;;;;;10.77;6.70;;;;;;;;;;5043886;28;20203;-69
2023/12/17 00:37:09;;;;;;;12.00;6.63;;;;;;;;;;5040170;28;20222;-69
2023/12/17 00:39:36;;;;;;;13.50;6.80;;;;;;;;;;5042369;28;20208;-69
2023/12/17 00:42:04;;;;;;;12.57;7.10;;;;;;;;;;5044746;28;20201;-69
2023/12/17 00:44:31;;;;;;;9.57;6.80;;;;;;;;;;5042601;28;20201;-68
2023/12/17 00:46:59;;;;;;;12.13;7.27;;;;;;;;;;5046478;28;20209;-69
2023/12/17 00:49:27;;;;;;;11.40;6.80;;;;;;;;;;5043113;28;20226;-69
2023/12/17 00:51:54;;;;;;;10.00;7.10;;;;;;;;;;5044264;28;20219;-69
2023/12/17 00:54:21;;;;;;;10.13;6.60;;;;;;;;;;5041653;28;20211;-69
2023/12/17 00:56:48;;;;;;;11.87;7.60;;;;;;;;;;5045076;28;20199;-69
2023/12/17 00:59:16;;;;;;;10.33;6.93;;;;;;;;;;5041374;28;20200;-69
2023/12/17 01:01:43;;;;;;;10.20;6.93;;;;;;;;;;5043524;28;20200;-69
2023/12/17 01:04:10;;;;;;;12.20;7.67;;;;;;;;;;5040062;28;20206;-69
2023/12/17 01:06:38;;;;;;;11.47;6.90;;;;;;;;;;5045779;28;20196;-69
2023/12/17 01:09:05;;;;;;;10.47;7.33;;;;;;;;;;5042002;28;20196;-68
2023/12/17 01:11:32;;;;;;;13.03;7.73;;;;;;;;;;5041438;28;20208;-69
2023/12/17 01:13:59;;;;;;;14.00;7.90;;;;;;;;;;5039589;28;20203;-68
2023/12/17 01:16:28;;;;;;;11.93;7.80;;;;;;;;;;5043075;28;20203;-69
2023/12/17 01:18:55;;;;;;;11.03;7.70;;;;;;;;;;5046253;28;20199;-70
2023/12/17 01:21:22;;;;;;;10.60;7.37;;;;;;;;;;5043882;28;20199;-68
2023/12/17 01:23:49;;;;;;;14.93;8.00;;;;;;;;;;5042853;28;20199;-69
2023/12/17 01:26:20;;;;;;;12.13;8.07;;;;;;;;;;5041987;28;20200;-70
2023/12/17 01:28:48;;;;;;;13.40;8.00;;;;;;;;;;5044022;28;20227;-69
2023/12/17 01:31:15;;;;;;;13.33;8.20;;;;;;;;;;5049862;28;20254;-69
2023/12/17 01:33:43;;;;;;;14.53;8.20;;;;;;;;;;5053093;28;20214;-69
2023/12/17 01:36:11;;;;;;;12.70;8.07;;;;;;;;;;5053275;28;20236;-69
2023/12/17 01:38:38;;;;;;;12.77;7.77;;;;;;;;;;5052185;28;20201;-70
2023/12/17 01:41:06;;;;;;;13.00;8.00;;;;;;;;;;5051134;28;20210;-70
2023/12/17 01:43:33;;;;;;;12.73;8.07;;;;;;;;;;5051939;28;20207;-69
2023/12/17 01:46:01;;;;;;;10.57;7.77;;;;;;;;;;5044389;28;20218;-69
2023/12/17 01:48:28;;;;;;;12.10;7.80;;;;;;;;;;5050227;28;20232;-69
2023/12/17 01:50:57;;;;;;;14.00;8.63;;;;;;;;;;5049314;28;20227;-69
2023/12/17 01:53:24;;;;;;;11.83;7.83;;;;;;;;;;5049645;28;20206;-69
2023/12/17 01:55:52;;;;;;;12.40;7.93;;;;;;;;;;5052298;28;20218;-70
2023/12/17 01:58:19;;;;;;;12.83;8.80;;;;;;;;;;5050465;28;20202;-69
2023/12/17 02:00:48;;;;;;;13.43;8.30;;;;;;;;;;5052318;28;20195;-70
2023/12/17 02:03:15;;;;;;;12.80;7.93;;;;;;;;;;5051926;28;20196;-64
2023/12/17 02:05:45;;;;;;;12.50;7.60;;;;;;;;;;5051157;28;20211;-65
2023/12/17 02:08:14;;;;;;;15.23;8.30;;;;;;;;;;5049405;28;20507;-64
2023/12/17 02:10:41;;;;;;;11.77;7.57;;;;;;;;;;5047552;28;20234;-64
2023/12/17 02:13:10;;;;;;;12.13;7.63;;;;;;;;;;5048944;28;20195;-64
2023/12/17 02:15:37;;;;;;;11.53;7.00;;;;;;;;;;5049321;28;20199;-64
2023/12/17 02:18:04;;;;;;;15.10;7.77;;;;;;;;;;5047030;28;20203;-64
2023/12/17 02:20:31;;;;;;;11.57;7.77;;;;;;;;;;5048842;28;20203;-64
2023/12/17 02:23:00;;;;;;;11.43;8.23;;;;;;;;;;5050206;28;20208;-63
2023/12/17 02:25:29;;;;;;;11.30;7.60;;;;;;;;;;5046286;28;20733;-64
2023/12/17 02:27:57;;;;;;;16.53;8.93;;;;;;;;;;5050375;28;20410;-64
2023/12/17 02:30:25;;;;;;;12.30;8.53;;;;;;;;;;5047204;28;20207;-63
2023/12/17 02:32:52;;;;;;;13.50;8.43;;;;;;;;;;5048971;28;20217;-64
2023/12/17 02:35:21;;;;;;;11.10;8.77;;;;;;;;;;5049818;28;20215;-65
2023/12/17 02:37:48;;;;;;;12.53;8.27;;;;;;;;;;5051043;28;20191;-63
2023/12/17 02:40:15;;;;;;;14.03;8.97;;;;;;;;;;5048210;28;20200;-63
2023/12/17 02:42:44;;;;;;;13.70;8.50;;;;;;;;;;5045492;28;20239;-64
2023/12/17 02:45:12;;;;;;;14.83;8.93;;;;;;;;;;5040828;28;20204;-63
2023/12/17 02:47:39;;;;;;;14.67;8.80;;;;;;;;;;5044164;28;20207;-63
2023/12/17 02:50:06;;;;;;;13.90;8.47;;;;;;;;;;5041767;28;20215;-64
2023/12/17 02:52:34;;;;;;;12.13;8.10;;;;;;;;;;5042031;28;20230;-64
2023/12/17 02:55:01;;;;;;;12.00;9.03;;;;;;;;;;5044785;28;20318;-64
2023/12/17 02:57:28;;;;;;;11.47;8.13;;;;;;;;;;5043660;28;20204;-64
2023/12/17 02:59:57;;;;;;;11.33;8.10;;;;;;;;;;5049363;28;20200;-65
2023/12/17 03:02:24;;;;;;;13.00;7.83;;;;;;;;;;5045574;28;20203;-64
2023/12/17 03:04:51;;;;;;;14.47;8.40;;;;;;;;;;5046989;28;20205;-64
2023/12/17 03:07:19;;;;;;;13.37;8.30;;;;;;;;;;5042991;28;20215;-64
2023/12/17 03:09:47;;;;;;;12.57;8.47;;;;;;;;;;5047614;28;20333;-63
2023/12/17 03:12:16;;;;;;;13.23;8.60;;;;;;;;;;5045002;28;20324;-69
2023/12/17 03:14:43;;;;;;;12.00;8.20;;;;;;;;;;5046153;28;20210;-70
2023/12/17 03:17:11;;;;;;;11.47;7.97;;;;;;;;;;5043782;28;20204;-70
2023/12/17 03:19:38;;;;;;;15.40;9.07;;;;;;;;;;5046519;28;20207;-69
2023/12/17 03:22:05;;;;;;;10.33;7.70;;;;;;;;;;5045681;28;20206;-70
2023/12/17 03:24:32;;;;;;;14.10;8.53;;;;;;;;;;5044014;28;20200;-70
2023/12/17 03:26:59;;;;;;;12.63;8.70;;;;;;;;;;5046607;28;20203;-70
2023/12/17 03:29:26;;;;;;;10.73;7.60;;;;;;;;;;5042308;28;20236;-70
2023/12/17 03:31:54;;;;;;;10.97;7.93;;;;;;;;;;5040466;28;20215;-70
2023/12/17 03:34:22;;;;;;;13.07;8.13;;;;;;;;;;5046149;28;20199;-69
2023/12/17 03:36:49;;;;;;;11.60;7.80;;;;;;;;;;5042250;28;20204;-69
2023/12/17 03:39:16;;;;;;;10.87;8.00;;;;;;;;;;5045397;28;20195;-70
2023/12/17 03:41:43;;;;;;;12.53;8.23;;;;;;;;;;5043227;28;20210;-70
2023/12/17 03:44:11;;;;;;;11.23;7.73;;;;;;;;;;5045789;28;20208;-69
2023/12/17 03:46:38;;;;;;;12.37;8.27;;;;;;;;;;5047320;28;20286;-70
2023/12/17 03:49:05;;;;;;;11.30;7.10;;;;;;;;;;5049315;28;20218;-70
2023/12/17 03:51:34;;;;;;;10.83;7.30;;;;;;;;;;5044516;28;20219;-69
2023/12/17 03:54:01;;;;;;;11.27;7.23;;;;;;;;;;5044807;28;20207;-70
2023/12/17 03:56:28;;;;;;;10.17;7.10;;;;;;;;;;5045578;28;20218;-69
2023/12/17 03:58:55;;;;;;;11.10;6.73;;;;;;;;;;5044254;28;20203;-70
2023/12/17 04:01:23;;;;;;;11.33;7.43;;;;;;;;;;5045395;28;20188;-68
2023/12/17 04:03:50;;;;;;;12.00;7.57;;;;;;;;;;5044881;28;20257;-70
2023/12/17 04:06:17;;;;;;;15.40;7.47;;;;;;;;;;5045543;28;20204;-69
2023/12/17 04:08:46;;;;;;;11.97;7.10;;;;;;;;;;5040555;28;20223;-70
2023/12/17 04:11:13;;;;;;;10.13;7.50;;;;;;;;;;5043512;28;20200;-69
2023/12/17 04:13:40;;;;;;;9.50;6.70;;;;;;;;;;5039951;28;20224;-69
2023/12/17 04:16:07;;;;;;;10.87;7.07;;;;;;;;;;5043985;28;20204;-69
2023/12/17 04:18:34;;;;;;;11.57;7.23;;;;;;;;;;5047378;28;20207;-70
2023/12/17 04:21:02;;;;;;;9.63;7.10;;;;;;;;;;5044023;28;20196;-69
2023/12/17 04:23:29;;;;;;;13.20;8.17;;;;;;;;;;5042896;28;20278;-70
2023/12/17 04:25:57;;;;;;;10.30;6.87;;;;;;;;;;5047622;28;20204;-70
2023/12/17 04:28:24;;;;;;;12.20;8.20;;;;;;;;;;5043245;28;20238;-68
2023/12/17 04:30:51;;;;;;;10.97;7.47;;;;;;;;;;5043151;28;20415;-69
2023/12/17 04:33:18;;;;;;;13.47;8.17;;;;;;;;;;5046399;28;20216;-68
2023/12/17 04:35:45;;;;;;;12.80;7.80;;;;;;;;;;5042991;28;20196;-69
2023/12/17 04:38:13;;;;;;;14.20;8.57;;;;;;;;;;5038545;28;20543;-67
2023/12/17 04:40:40;;;;;;;11.83;7.53;;;;;;;;;;5042591;28;20204;-68
2023/12/17 04:43:09;;;;;;;9.70;8.00;;;;;;;;;;5042428;28;20196;-68
2023/12/17 04:45:36;;;;;;;10.37;7.53;;;;;;;;;;5048946;28;20195;-68
2023/12/17 04:48:03;;;;;;;12.03;7.07;;;;;;;;;;5044402;28;20207;-69
2023/12/17 04:50:31;;;;;;;12.47;7.33;;;;;;;;;;5043165;28;20211;-69
2023/12/17 04:52:58;;;;;;;13.70;7.47;;;;;;;;;;5046958;28;20208;-69
2023/12/17 04:55:25;;;;;;;11.60;7.67;;;;;;;;;;5046822;28;20195;-67
2023/12/17 04:57:52;;;;;;;11.33;7.17;;;;;;;;;;5043304;28;20200;-68
2023/12/17 05:00:21;;;;;;;11.87;8.03;;;;;;;;;;5042509;28;20204;-69
2023/12/17 05:02:48;;;;;;;12.70;7.77;;;;;;;;;;5042043;28;20200;-69
2023/12/17 05:05:15;;;;;;;10.97;8.30;;;;;;;;;;5044547;28;20203;-69
2023/12/17 05:07:42;;;;;;;10.07;7.47;;;;;;;;;;5038109;28;20202;-69
2023/12/17 05:10:10;;;;;;;11.20;7.53;;;;;;;;;;5043332;28;20196;-68
2023/12/17 05:12:37;;;;;;;10.20;7.40;;;;;;;;;;5042196;28;20224;-69
2023/12/17 05:15:05;;;;;;;11.57;7.20;;;;;;;;;;5042890;28;20195;-68
2023/12/17 05:17:33;;;;;;;12.87;8.20;;;;;;;;;;5046069;28;20282;-68
2023/12/17 05:20:00;;;;;;;12.17;8.80;;;;;;;;;;5047255;28;20212;-69
2023/12/17 05:22:27;;;;;;;11.10;8.40;;;;;;;;;;5040260;28;20196;-63
2023/12/17 05:24:55;;;;;;;10.50;8.20;;;;;;;;;;5044190;28;20267;-63
2023/12/17 05:27:22;;;;;;;11.23;7.63;;;;;;;;;;5042642;28;20212;-63
2023/12/17 05:29:49;;;;;;;10.50;8.50;;;;;;;;;;5044777;28;20239;-63
2023/12/17 05:32:16;;;;;;;14.17;8.40;;;;;;;;;;5044370;28;20219;-62
2023/12/17 05:34:44;;;;;;;11.20;8.50;;;;;;;;;;5041299;28;20296;-62
2023/12/17 05:37:11;;;;;;;13.70;8.70;;;;;;;;;;5041253;28;20208;-64
2023/12/17 05:39:39;;;;;;;11.60;8.03;;;;;;;;;;5045360;28;20436;-64
2023/12/17 05:42:06;;;;;;;13.57;8.20;;;;;;;;;;5043089;28;20196;-63
2023/12/17 05:44:33;;;;;;;11.63;8.63;;;;;;;;;;5042433;28;20198;-63
2023/12/17 05:47:00;;;;;;;11.50;9.03;;;;;;;;;;5041723;28;20286;-63
2023/12/17 05:49:27;;;;;;;14.37;9.27;;;;;;;;;;5041809;28;20207;-63
2023/12/17 05:51:56;;;;;;;13.40;9.27;;;;;;;;;;5039642;28;20219;-63
2023/12/17 05:54:23;;;;;;;12.47;8.53;;;;;;;;;;5047998;28;20191;-64
2023/12/17 05:56:50;;;;;;;10.30;8.47;;;;;;;;;;5043064;28;20210;-63
2023/12/17 05:59:17;;;;;;;12.70;8.17;;;;;;;;;;5039611;28;20195;-63
2023/12/17 06:01:44;;;;;;;10.77;8.60;;;;;;;;;;5040858;28;20215;-64
2023/12/17 06:04:12;;;;;;;12.20;8.80;;;;;;;;;;5042283;28;20214;-64
2023/12/17 06:06:39;;;;;;;12.20;8.77;;;;;;;;;;5043384;28;20204;-64
2023/12/17 06:09:08;;;;;;;12.63;9.37;;;;;;;;;;5042709;28;20294;-63
2023/12/17 06:11:35;;;;;;;31.13;11.07;;;;;;;;;;5042986;28;20265;-63
2023/12/17 06:14:03;;;;;;;12.70;9.83;;;;;;;;;;5042750;28;20209;-63
2023/12/17 06:16:30;;;;;;;17.57;10.27;;;;;;;;;;5043818;28;20203;-63
2023/12/17 06:18:58;;;;;;;14.90;9.57;;;;;;;;;;5047143;28;20202;-64
2023/12/17 06:21:25;;;;;;;18.80;10.47;;;;;;;;;;5051008;28;20195;-63
2023/12/17 06:23:57;;;;;;;18.50;9.83;;;;;;;;;;5045183;28;20204;-64
2023/12/17 06:26:25;;;;;;;13.43;9.30;;;;;;;;;;5048859;28;20199;-64
2023/12/17 06:28:53;;;;;;;14.73;9.20;;;;;;;;;;5047408;28;20241;-64
2023/12/17 06:31:21;;;;;;;13.33;8.83;;;;;;;;;;5046846;28;20288;-63
2023/12/17 06:33:49;;;;;;;13.37;8.00;;;;;;;;;;5047004;28;20227;-62
2023/12/17 06:36:17;;;;;;;10.07;7.67;;;;;;;;;;5050054;28;20207;-63
2023/12/17 06:38:44;;;;;;;8.17;7.33;;;;;;;;;;5045678;28;20221;-63
2023/12/17 06:41:11;;;;;;;10.47;7.97;;;;;;;;;;5050229;28;20218;-64
2023/12/17 06:43:40;;;;;;;25.17;7.37;;;;;;;;;;5047067;28;20196;-63
2023/12/17 06:46:08;;;;;;;10.97;7.10;;;;;;;;;;5049781;28;20200;-63
2023/12/17 06:48:35;;;;;;;8.10;7.07;;;;;;;;;;5049133;28;20199;-63
2023/12/17 06:51:02;;;;;;;9.63;7.40;;;;;;;;;;5047385;28;20219;-64
2023/12/17 06:53:29;;;;;;;9.90;7.27;;;;;;;;;;5041267;28;20215;-62
2023/12/17 06:55:56;;;;;;;10.30;7.67;;;;;;;;;;5045855;28;20208;-64
2023/12/17 06:58:24;;;;;;;8.73;6.70;;;;;;;;;;5046260;28;20192;-63
2023/12/17 07:00:52;;;;;;;9.83;6.60;;;;;;;;;;5045919;28;20206;-64
2023/12/17 07:03:20;;;;;;;10.67;6.47;;;;;;;;;;5048733;28;20208;-64
2023/12/17 07:05:47;;;;;;;7.93;6.17;;;;;;;;;;5048153;28;20206;-63
2023/12/17 07:08:14;;;;;;;6.87;6.17;;;;;;;;;;5047677;28;20204;-63
2023/12/17 07:10:41;;;;;;;9.50;6.43;;;;;;;;;;5045561;28;20206;-64
2023/12/17 07:13:08;;;;;;;8.73;6.70;;;;;;;;;;5045399;28;20224;-64
2023/12/17 07:15:35;;;;;;;9.13;6.67;;;;;;;;;;5047771;28;20219;-64
2023/12/17 07:18:04;;;;;;;8.00;5.93;;;;;;;;;;5049626;28;20207;-64
2023/12/17 07:20:31;;;;;;;7.63;5.50;;;;;;;;;;5046172;28;20213;-64
2023/12/17 07:22:58;;;;;;;6.47;5.37;;;;;;;;;;5043514;28;20200;-63
2023/12/17 07:25:26;;;;;;;7.60;5.80;;;;;;;;;;5048318;28;20213;-63
2023/12/17 07:27:54;;;;;;;6.13;5.53;;;;;;;;;;5043111;28;20217;-63
2023/12/17 07:30:21;;;;;;;8.73;5.97;;;;;;;;;;5040197;28;20200;-64
2023/12/17 07:32:48;;;;;;;9.17;6.10;;;;;;;;;;5046607;28;20215;-63
2023/12/17 07:35:17;;;;;;;10.23;6.77;;;;;;;;;;5043581;28;20214;-63
2023/12/17 07:37:44;;;;;;;8.87;6.27;;;;;;;;;;5032972;28;20227;-63
2023/12/17 07:40:11;;;;;;;8.80;6.30;;;;;;;;;;5033122;28;20210;-63
2023/12/17 07:42:38;;;;;;;8.17;6.53;;;;;;;;;;5034342;28;20203;-63
2023/12/17 07:45:06;;;;;;;9.67;6.80;;;;;;;;;;5033575;28;20207;-64
2023/12/17 07:47:33;;;;;;;9.37;6.60;;;;;;;;;;5032538;28;20203;-64
2023/12/17 07:50:00;;;;;;;8.93;5.80;;;;;;;;;;5032512;28;20199;-64
2023/12/17 07:52:29;;;;;;;7.60;5.60;;;;;;;;;;5033571;28;20199;-65
2023/12/17 07:54:57;;;;;;;6.33;5.30;;;;;;;;;;5033297;28;20212;-64
2023/12/17 07:57:24;;;;;;;6.40;5.27;;;;;;;;;;5033345;28;20261;-63
2023/12/17 07:59:51;;;;;;;6.93;5.50;;;;;;;;;;5031219;28;20208;-64
2023/12/17 08:02:18;;;;;;;6.47;4.97;;;;;;;;;;5032068;28;20257;-64
2023/12/17 08:04:45;;;;;;;5.90;5.20;;;;;;;;;;5033728;28;20203;-64
2023/12/17 08:07:13;;;;;;;7.23;5.23;;;;;;;;;;5030656;28;20199;-65
2023/12/17 08:09:42;;;;;;;7.00;4.97;;;;;;;;;;5033871;28;20218;-65
2023/12/17 08:12:09;;;;;;;7.33;5.60;;;;;;;;;;5030019;28;20204;-64
2023/12/17 08:14:37;;;;;;;5.77;4.73;;;;;;;;;;5032155;28;20227;-65
2023/12/17 08:17:04;;;;;;;7.10;5.10;;;;;;;;;;5030008;28;20208;-64
2023/12/17 08:19:31;;;;;;;7.23;4.93;;;;;;;;;;5032463;28;20207;-64
2023/12/17 08:21:58;;;;;;;5.77;4.67;;;;;;;;;;5030242;28;20212;-63
2023/12/17 08:24:25;;;;;;;6.30;4.77;;;;;;;;;;5032472;28;20609;-65
2023/12/17 08:26:54;;;;;;;6.73;5.00;;;;;;;;;;5034655;28;20205;-64
2023/12/17 08:29:21;;;;;;;6.60;5.20;;;;;;;;;;5033107;28;20237;-62
2023/12/17 08:31:48;;;;;;;7.40;5.33;;;;;;;;;;5029364;28;20221;-65
2023/12/17 08:34:16;;;;;;;7.73;5.53;;;;;;;;;;5031445;28;20235;-63
2023/12/17 08:36:43;;;;;;;6.10;4.87;;;;;;;;;;5031702;28;20303;-63
2023/12/17 08:39:11;;;;;;;6.53;5.07;;;;;;;;;;5031761;28;20204;-64
2023/12/17 08:41:38;;;;;;;5.37;4.67;;;;;;;;;;5029975;28;21720;-63
2023/12/17 08:44:07;;;;;;;7.23;4.40;;;;;;;;;;5033366;28;20215;-63
2023/12/17 08:46:34;;;;;;;8.07;4.87;;;;;;;;;;5035893;28;20206;-63
2023/12/17 08:49:02;;;;;;;6.77;5.20;;;;;;;;;;5028208;28;20211;-64
2023/12/17 08:51:29;;;;;;;9.73;5.30;;;;;;;;;;5033775;28;20207;-63
2023/12/17 08:53:56;;;;;;;7.47;5.10;;;;;;;;;;5038571;28;20315;-64
2023/12/17 08:56:23;;;;;;;8.67;5.10;;;;;;;;;;5034865;28;20273;-64
2023/12/17 08:58:50;;;;;;;8.17;4.90;;;;;;;;;;5032687;28;20207;-63
2023/12/17 09:01:19;;;;;;;9.33;4.50;;;;;;;;;;5030822;28;20321;-63
2023/12/17 09:03:47;;;;;;;12.13;4.83;;;;;;;;;;5032321;28;20195;-64
2023/12/17 09:06:14;;;;;;;5.33;4.60;;;;;;;;;;5029205;28;20208;-64
2023/12/17 09:08:42;;;;;;;6.93;4.90;;;;;;;;;;5033430;28;20203;-63
2023/12/17 09:11:09;;;;;;;8.43;7.10;;;;;;;;;;5027949;28;20207;-63
2023/12/17 09:13:36;;;;;;;7.13;5.70;;;;;;;;;;5032496;28;20211;-65
2023/12/17 09:16:03;;;;;;;7.70;5.57;;;;;;;;;;5032221;28;20282;-64
2023/12/17 09:18:31;;;;;;;15.20;6.27;;;;;;;;;;5030686;28;20842;-63
2023/12/17 09:20:59;;;;;;;5.57;4.80;;;;;;;;;;5030983;28;20219;-63
2023/12/17 09:23:26;;;;;;;6.53;5.13;;;;;;;;;;5036394;28;20199;-64
2023/12/17 09:25:53;;;;;;;9.47;4.77;;;;;;;;;;5030928;28;20207;-63
2023/12/17 09:28:20;;;;;;;6.83;5.23;;;;;;;;;;5032386;28;20235;-63
2023/12/17 09:30:47;;;;;;;7.30;5.57;;;;;;;;;;5030192;28;20222;-64
2023/12/17 09:33:16;;;;;;;5.33;4.80;;;;;;;;;;5030172;28;20207;-63
2023/12/17 09:35:45;;;;;;;6.30;4.93;;;;;;;;;;5031293;28;20207;-63
2023/12/17 09:38:14;;;;;;;5.80;4.67;;;;;;;;;;5030052;28;20756;-63
2023/12/17 09:40:41;;;;;;;5.70;4.87;;;;;;;;;;5031700;28;20271;-63
2023/12/17 09:43:10;;;;;;;9.97;5.77;;;;;;;;;;5031577;28;20257;-62
2023/12/17 09:45:39;;;;;;;7.03;5.30;;;;;;;;;;5031225;28;20210;-63
2023/12/17 09:48:06;;;;;;;9.00;5.33;;;;;;;;;;5030302;28;20219;-62
2023/12/17 09:50:33;;;;;;;10.87;6.07;;;;;;;;;;5030916;28;20226;-64
2023/12/17 09:53:01;;;;;;;6.93;5.30;;;;;;;;;;5041408;28;20210;-63
2023/12/17 09:55:28;;;;;;;7.97;5.50;;;;;;;;;;5036658;28;20207;-63
2023/12/17 09:57:56;;;;;;;8.73;5.90;;;;;;;;;;5035575;28;20211;-63
2023/12/17 10:00:23;;;;;;;7.23;5.37;;;;;;;;;;5034441;28;20214;-62
2023/12/17 10:02:50;;;;;;;7.63;5.93;;;;;;;;;;5035575;28;20215;-68
2023/12/17 10:05:17;;;;;;;6.83;5.77;;;;;;;;;;5034112;28;20201;-69
2023/12/17 10:07:44;;;;;;;17.50;7.30;;;;;;;;;;5032079;28;20207;-69
2023/12/17 10:10:12;;;;;;;8.63;6.37;;;;;;;;;;5033907;28;20219;-69
2023/12/17 10:12:39;;;;;;;7.93;6.43;;;;;;;;;;5033111;28;20215;-69
2023/12/17 10:15:07;;;;;;;10.47;6.57;;;;;;;;;;5035181;28;20254;-67
2023/12/17 10:17:34;;;;;;;7.83;6.03;;;;;;;;;;5035540;28;20210;-69
2023/12/17 10:20:01;;;;;;;10.57;6.77;;;;;;;;;;5034970;28;20214;-67
2023/12/17 10:22:29;;;;;;;8.80;6.87;;;;;;;;;;5034639;28;20205;-68
2023/12/17 10:24:56;;;;;;;10.60;7.07;;;;;;;;;;5036849;28;20191;-68
2023/12/17 10:27:24;;;;;;;9.37;7.33;;;;;;;;;;5035489;28;20204;-69
2023/12/17 10:29:52;;;;;;;10.20;8.10;;;;;;;;;;5033929;28;20253;-67
2023/12/17 10:32:23;;;;;;;10.83;7.40;;;;;;;;;;5031733;28;22340;-68
2023/12/17 10:34:51;;;;;;;8.40;6.67;;;;;;;;;;5033950;28;20220;-66
2023/12/17 10:37:19;;;;;;;14.97;8.80;;;;;;;;;;5033154;28;20212;-69
2023/12/17 10:39:49;;;;;;;8.93;6.93;;;;;;;;;;5033582;28;20646;-68
2023/12/17 10:42:16;;;;;;;14.40;8.83;;;;;;;;;;5032127;28;20227;-68
2023/12/17 10:44:45;;;;;;;12.83;8.03;;;;;;;;;;5032559;28;20208;-68
2023/12/17 10:47:13;;;;;;;13.20;8.83;;;;;;;;;;5033108;28;20207;-67
2023/12/17 10:49:40;;;;;;;14.23;9.63;;;;;;;;;;5032792;28;20205;-68
2023/12/17 10:52:08;;;;;;;17.13;9.40;;;;;;;;;;5032994;28;20203;-68
2023/12/17 10:54:35;;;;;;;17.10;9.70;;;;;;;;;;5035827;28;20226;-68
2023/12/17 10:57:04;;;;;;;14.77;9.87;;;;;;;;;;5041797;28;20199;-67
2023/12/17 10:59:33;;;;;;;16.40;10.70;;;;;;;;;;5033756;28;20212;-68
2023/12/17 11:02:02;;;;;;;14.77;9.83;;;;;;;;;;5035126;28;20213;-68
2023/12/17 11:04:29;;;;;;;19.67;9.53;;;;;;;;;;5031516;28;20204;-68
2023/12/17 11:06:56;;;;;;;13.30;9.63;;;;;;;;;;5034661;28;20210;-68
2023/12/17 11:09:24;;;;;;;13.67;8.87;;;;;;;;;;5036370;28;20199;-67
2023/12/17 11:11:52;;;;;;;16.60;9.47;;;;;;;;;;5032615;28;20207;-68
2023/12/17 11:14:19;;;;;;;12.87;9.00;;;;;;;;;;5035967;28;20234;-67
2023/12/17 11:16:47;;;;;;;13.87;8.53;;;;;;;;;;5033769;28;20208;-68
2023/12/17 11:19:16;;;;;;;14.80;9.13;;;;;;;;;;5033064;28;20210;-68
2023/12/17 11:21:45;;;;;;;14.60;8.60;;;;;;;;;;5030519;28;20215;-68
2023/12/17 11:24:13;;;;;;;12.53;7.47;;;;;;;;;;5039317;28;20261;-69
2023/12/17 11:26:41;;;;;;;14.03;8.60;;;;;;;;;;5041375;28;20203;-67
2023/12/17 11:29:23;;;;;;;15.97;8.43;;;;;;;;;;5042450;28;20231;-67
2023/12/17 11:31:50;;;;;;;12.73;8.60;;;;;;;;;;5039636;28;20286;-67
2023/12/17 11:34:18;;;;;;;13.37;8.93;;;;;;;;;;5044415;28;20222;-68
2023/12/17 11:36:46;;;;;;;13.47;8.07;;;;;;;;;;5041495;28;20219;-68
2023/12/17 11:39:13;;;;;;;14.67;7.80;;;;;;;;;;5043833;28;20196;-68
2023/12/17 11:41:40;;;;;;;12.07;8.00;;;;;;;;;;5047716;28;20295;-68
2023/12/17 11:44:08;;;;;;;13.10;7.97;;;;;;;;;;5039699;28;20213;-67
2023/12/17 11:46:35;;;;;;;12.57;5.97;;;;;;;;;;5041840;28;20211;-68
2023/12/17 11:49:03;;;;;;;13.60;6.27;;;;;;;;;;5044124;28;20306;-68
2023/12/17 11:51:32;;;;;;;10.67;6.40;;;;;;;;;;5042575;28;20267;-69
2023/12/17 11:53:59;;;;;;;12.77;6.20;;;;;;;;;;5046373;28;20215;-68
2023/12/17 11:56:30;;;;;;;11.60;5.77;;;;;;;;;;5042062;28;20211;-68
2023/12/17 11:58:57;;;;;;;11.93;6.80;;;;;;;;;;5040621;28;20199;-69
2023/12/17 12:01:24;;;;;;;10.07;5.90;;;;;;;;;;5039685;28;20204;-69
2023/12/17 12:03:57;;;;;;;12.57;5.60;;;;;;;;;;5044451;28;20196;-68
2023/12/17 12:06:25;;;;;;;12.83;6.50;;;;;;;;;;5041436;28;20203;-69
2023/12/17 12:08:54;;;;;;;10.20;6.30;;;;;;;;;;5042132;28;20231;-68
2023/12/17 12:11:21;;;;;;;15.07;6.77;;;;;;;;;;5042963;28;20261;-68
2023/12/17 12:13:50;;;;;;;13.20;6.93;;;;;;;;;;5039337;28;20265;-69
2023/12/17 12:16:20;;;;;;;11.23;6.10;;;;;;;;;;5041373;28;20211;-68
2023/12/17 12:18:47;;;;;;;9.90;6.87;;;;;;;;;;5045240;28;20218;-68
2023/12/17 12:21:18;;;;;;;13.00;7.50;;;;;;;;;;5044717;28;20199;-67
2023/12/17 12:23:50;;;;;;;11.97;6.13;;;;;;;;;;5044020;28;20238;-69
2023/12/17 12:26:19;;;;;;;13.63;6.83;;;;;;;;;;5043273;28;20219;-69
2023/12/17 12:28:50;;;;;;;15.30;6.00;;;;;;;;;;5041092;28;20273;-68
2023/12/17 12:31:17;;;;;;;15.10;5.97;;;;;;;;;;5035605;28;20239;-68
2023/12/17 12:33:52;;;;;;;10.60;5.07;;;;;;;;;;5043410;28;20199;-68
2023/12/17 12:36:19;;;;;;;10.43;5.53;;;;;;;;;;5043218;28;20199;-69
2023/12/17 12:38:47;;;;;;;10.17;5.70;;;;;;;;;;5043925;28;20209;-69
2023/12/17 12:41:14;;;;;;;12.90;6.10;;;;;;;;;;5043089;28;20205;-68
2023/12/17 12:43:42;;;;;;;12.33;5.80;;;;;;;;;;5043237;28;20211;-69
2023/12/17 12:46:10;;;;;;;11.60;6.57;;;;;;;;;;5041682;28;20206;-68
2023/12/17 12:48:39;;;;;;;13.87;7.20;;;;;;;;;;5044671;28;20196;-68
2023/12/17 12:51:07;;;;;;;15.53;6.83;;;;;;;;;;5037641;28;20211;-68
2023/12/17 12:53:34;;;;;;;10.13;6.40;;;;;;;;;;5044368;28;20195;-69
2023/12/17 12:56:01;;;;;;;17.63;7.03;;;;;;;;;;5042277;28;20224;-68
2023/12/17 12:58:30;;;;;;;14.17;5.80;;;;;;;;;;5046192;28;20212;-68
2023/12/17 13:00:58;;;;;;;10.50;6.30;;;;;;;;;;5044264;28;20303;-68
2023/12/17 13:03:26;;;;;;;12.40;5.77;;;;;;;;;;5042448;28;20208;-68
2023/12/17 13:05:53;;;;;;;15.57;6.90;;;;;;;;;;5044115;28;20206;-68
2023/12/17 13:08:20;;;;;;;14.03;6.47;;;;;;;;;;5036605;28;20216;-68
2023/12/17 13:10:48;;;;;;;11.67;6.53;;;;;;;;;;5040956;28;20265;-67
2023/12/17 13:13:15;;;;;;;13.20;6.83;;;;;;;;;;5041970;28;20202;-68
2023/12/17 13:15:42;;;;;;;13.87;7.60;;;;;;;;;;5046408;28;20223;-68
2023/12/17 13:18:10;;;;;;;12.97;7.13;;;;;;;;;;5042458;28;20223;-68
2023/12/17 13:20:37;;;;;;;12.13;6.90;;;;;;;;;;5038930;28;20337;-69
2023/12/17 13:23:05;;;;;;;13.77;7.17;;;;;;;;;;5040613;28;20207;-68
2023/12/17 13:25:32;;;;;;;13.17;7.37;;;;;;;;;;5044783;28;20203;-68
2023/12/17 13:28:00;;;;;;;11.87;7.43;;;;;;;;;;5039495;28;20227;-69
2023/12/17 13:30:29;;;;;;;17.83;8.40;;;;;;;;;;5037666;28;20215;-69
2023/12/17 13:33:00;;;;;;;13.97;7.67;;;;;;;;;;5044764;28;20577;-68
2023/12/17 13:35:28;;;;;;;11.33;6.97;;;;;;;;;;5043551;28;20298;-68
2023/12/17 13:37:55;;;;;;;11.53;6.67;;;;;;;;;;5039002;28;20408;-69
2023/12/17 13:40:22;;;;;;;17.03;7.37;;;;;;;;;;5038392;28;20230;-69
2023/12/17 13:42:50;;;;;;;15.20;7.13;;;;;;;;;;5043396;28;20214;-69
2023/12/17 13:45:17;;;;;;;12.73;6.47;;;;;;;;;;5041335;28;20207;-69
2023/12/17 13:47:44;;;;;;;15.90;6.17;;;;;;;;;;5043703;28;20210;-69
2023/12/17 13:50:12;;;;;;;11.33;6.23;;;;;;;;;;5043168;28;20201;-69
2023/12/17 13:52:40;;;;;;;10.33;6.30;;;;;;;;;;5039264;28;20204;-68
2023/12/17 13:55:08;;;;;;;9.70;6.20;;;;;;;;;;5040620;28;20220;-68
2023/12/17 13:57:36;;;;;;;9.47;6.13;;;;;;;;;;5042970;28;20455;-68
2023/12/17 14:00:05;;;;;;;10.23;7.03;;;;;;;;;;5041478;28;20204;-68
2023/12/17 14:02:32;;;;;;;10.63;6.60;;;;;;;;;;5040819;28;20210;-68
2023/12/17 14:04:59;;;;;;;11.37;6.30;;;;;;;;;;5042843;28;20214;-68
2023/12/17 14:07:26;;;;;;;13.50;7.43;;;;;;;;;;5039698;28;20207;-68
2023/12/17 14:09:56;;;;;;;16.10;7.87;;;;;;;;;;5042242;28;20294;-69
2023/12/17 14:12:23;;;;;;;13.07;7.50;;;;;;;;;;5039673;28;20227;-69
2023/12/17 14:14:50;;;;;;;13.50;7.43;;;;;;;;;;5043398;28;20223;-69
2023/12/17 14:17:17;;;;;;;12.03;7.93;;;;;;;;;;5037982;28;20200;-68
2023/12/17 14:19:45;;;;;;;12.17;8.13;;;;;;;;;;5043168;28;20206;-69
2023/12/17 14:22:12;;;;;;;12.90;8.23;;;;;;;;;;5041104;28;20230;-68
2023/12/17 14:24:40;;;;;;;14.60;8.60;;;;;;;;;;5039432;28;20197;-68
2023/12/17 14:27:09;;;;;;;14.47;9.17;;;;;;;;;;5041749;28;20276;-68
2023/12/17 14:29:37;;;;;;;15.67;9.47;;;;;;;;;;5041529;28;20236;-68
2023/12/17 14:32:05;;;;;;;13.33;8.27;;;;;;;;;;5043323;28;20217;-69
2023/12/17 14:34:35;;;;;;;18.33;8.50;;;;;;;;;;5040676;28;20204;-68